createdAt,value
2022-10-24T00:01:17.642Z,22.72
2022-10-24T00:03:44.000Z,22.73
2022-10-24T00:06:10.390Z,22.86
2022-10-24T00:08:36.745Z,22.79
2022-10-24T00:11:03.202Z,22.70
2022-10-24T00:13:29.576Z,22.71
2022-10-24T00:15:55.953Z,22.77
2022-10-24T00:18:22.329Z,22.70
2022-10-24T00:20:48.705Z,22.73
2022-10-24T00:23:15.069Z,22.73
2022-10-24T00:25:41.428Z,22.70
2022-10-24T00:28:07.784Z,22.71
2022-10-24T00:30:34.149Z,22.67
2022-10-24T00:33:00.534Z,22.66
2022-10-24T00:35:26.884Z,22.61
2022-10-24T00:37:53.259Z,22.66
2022-10-24T00:40:19.634Z,22.62
2022-10-24T00:42:46.000Z,22.66
2022-10-24T00:45:12.380Z,22.65
2022-10-24T00:47:38.744Z,22.64
2022-10-24T00:50:05.114Z,22.63
2022-10-24T00:52:31.476Z,22.64
2022-10-24T00:54:57.838Z,22.66
2022-10-24T00:57:24.256Z,22.67
2022-10-24T00:59:50.639Z,22.67
2022-10-24T01:02:17.014Z,22.70
2022-10-24T01:04:43.378Z,22.69
2022-10-24T01:07:09.735Z,22.66
2022-10-24T01:09:36.096Z,22.75
2022-10-24T01:12:02.455Z,22.69
2022-10-24T01:14:28.833Z,22.70
2022-10-24T01:16:55.199Z,22.68
2022-10-24T01:19:21.661Z,22.67
2022-10-24T01:21:48.016Z,22.74
2022-10-24T01:24:14.367Z,22.71
2022-10-24T01:26:40.738Z,22.70
2022-10-24T01:29:07.112Z,22.73
2022-10-24T01:31:33.478Z,22.69
2022-10-24T01:33:59.836Z,22.78
2022-10-24T01:36:26.205Z,22.72
2022-10-24T01:38:52.565Z,22.71
2022-10-24T01:41:18.932Z,22.70
2022-10-24T01:43:45.337Z,22.71
2022-10-24T01:46:11.717Z,22.68
2022-10-24T01:48:38.078Z,22.71
2022-10-24T01:51:04.445Z,22.69
2022-10-24T01:53:30.801Z,22.66
2022-10-24T01:55:57.161Z,22.67
2022-10-24T01:58:23.536Z,22.65
2022-10-24T02:00:49.929Z,22.73
2022-10-24T02:03:16.307Z,22.66
2022-10-24T02:05:42.674Z,22.69
2022-10-24T02:08:09.201Z,22.77
2022-10-24T02:10:35.560Z,22.74
2022-10-24T02:13:01.917Z,22.72
2022-10-24T02:15:28.291Z,22.71
2022-10-24T02:17:54.659Z,22.76
2022-10-24T02:20:21.030Z,22.74
2022-10-24T02:22:47.402Z,22.71
2022-10-24T02:25:13.757Z,22.74
2022-10-24T02:27:40.125Z,22.76
2022-10-24T02:30:06.485Z,22.79
2022-10-24T02:32:32.852Z,22.72
2022-10-24T02:34:59.227Z,22.74
2022-10-24T02:37:25.583Z,22.81
2022-10-24T02:39:51.941Z,22.81
2022-10-24T02:42:18.354Z,22.85
2022-10-24T02:44:44.723Z,22.82
2022-10-24T02:47:11.081Z,22.74
2022-10-24T02:49:37.448Z,22.75
2022-10-24T02:52:03.818Z,22.67
2022-10-24T02:54:30.178Z,22.66
2022-10-24T02:56:56.632Z,22.65
2022-10-24T02:59:23.003Z,22.65
2022-10-24T03:01:49.396Z,22.60
2022-10-24T03:04:15.822Z,22.66
2022-10-24T03:06:42.188Z,22.62
2022-10-24T03:09:08.551Z,22.63
2022-10-24T03:11:34.912Z,22.60
2022-10-24T03:14:01.610Z,22.65
2022-10-24T03:16:27.973Z,22.66
2022-10-24T03:18:54.338Z,22.63
2022-10-24T03:21:20.697Z,22.68
2022-10-24T03:23:47.058Z,22.64
2022-10-24T03:26:13.416Z,22.65
2022-10-24T03:28:39.782Z,22.63
2022-10-24T03:31:06.149Z,22.63
2022-10-24T03:33:32.515Z,22.65
2022-10-24T03:35:58.880Z,22.62
2022-10-24T03:38:25.246Z,22.58
2022-10-24T03:40:51.618Z,22.59
2022-10-24T03:43:18.007Z,22.56
2022-10-24T03:45:44.382Z,22.61
2022-10-24T03:48:10.727Z,22.62
2022-10-24T03:50:37.095Z,22.60
2022-10-24T03:53:03.467Z,22.59
2022-10-24T03:55:29.830Z,22.63
2022-10-24T03:57:56.206Z,22.56
2022-10-24T04:00:22.607Z,22.60
2022-10-24T04:02:48.987Z,22.57
2022-10-24T04:05:15.350Z,22.55
2022-10-24T04:07:41.954Z,22.57
2022-10-24T04:10:08.466Z,22.56
2022-10-24T04:12:34.839Z,22.58
2022-10-24T04:15:04.109Z,22.58
2022-10-24T04:17:31.483Z,22.55
2022-10-24T04:19:57.836Z,22.57
2022-10-24T04:22:24.201Z,22.53
2022-10-24T04:24:50.597Z,22.56
2022-10-24T04:27:16.957Z,22.57
2022-10-24T04:29:43.320Z,22.58
2022-10-24T04:32:09.695Z,22.56
2022-10-24T04:34:36.051Z,22.55
2022-10-24T04:37:02.457Z,22.56
2022-10-24T04:39:28.824Z,22.59
2022-10-24T04:41:55.197Z,22.57
2022-10-24T04:44:21.557Z,22.58
2022-10-24T04:46:51.349Z,22.58
2022-10-24T04:49:17.862Z,22.53
2022-10-24T04:51:44.243Z,22.55
2022-10-24T04:54:10.611Z,22.52
2022-10-24T04:56:36.974Z,22.53
2022-10-24T04:59:03.340Z,22.50
2022-10-24T05:01:29.765Z,22.54
2022-10-24T05:03:56.216Z,22.52
2022-10-24T05:06:22.618Z,22.61
2022-10-24T05:08:48.976Z,22.54
2022-10-24T05:11:15.338Z,22.51
2022-10-24T05:13:41.705Z,22.51
2022-10-24T05:16:08.068Z,22.45
2022-10-24T05:18:34.522Z,22.44
2022-10-24T05:21:00.889Z,22.47
2022-10-24T05:23:27.258Z,22.44
2022-10-24T05:25:53.642Z,22.44
2022-10-24T05:28:20.052Z,22.46
2022-10-24T05:30:46.413Z,22.45
2022-10-24T05:33:12.792Z,22.45
2022-10-24T05:35:39.151Z,22.44
2022-10-24T05:38:05.614Z,22.48
2022-10-24T05:40:31.974Z,22.48
2022-10-24T05:42:58.341Z,22.47
2022-10-24T05:45:24.714Z,22.51
2022-10-24T05:47:51.099Z,22.48
2022-10-24T05:50:17.455Z,22.49
2022-10-24T05:52:46.978Z,22.49
2022-10-24T05:55:17.001Z,22.45
2022-10-24T05:57:44.638Z,22.49
2022-10-24T06:00:11.245Z,22.49
2022-10-24T06:02:37.670Z,22.71
2022-10-24T06:05:04.074Z,22.85
2022-10-24T06:07:30.451Z,22.65
2022-10-24T06:09:56.819Z,22.59
2022-10-24T06:12:23.206Z,22.51
2022-10-24T06:14:49.552Z,22.51
2022-10-24T06:17:15.900Z,22.50
2022-10-24T06:19:42.630Z,22.49
2022-10-24T06:22:09.116Z,22.43
2022-10-24T06:24:35.482Z,22.47
2022-10-24T06:27:01.850Z,22.47
2022-10-24T06:29:28.214Z,22.43
2022-10-24T06:31:54.586Z,22.42
2022-10-24T06:37:07.222Z,22.41
2022-10-24T06:39:33.587Z,22.46
2022-10-24T06:41:59.947Z,22.44
2022-10-24T06:44:26.305Z,22.43
2022-10-24T06:46:52.689Z,22.40
2022-10-24T06:49:19.041Z,22.42
2022-10-24T06:51:45.406Z,22.45
2022-10-24T06:54:11.784Z,22.45
2022-10-24T06:56:38.170Z,22.39
2022-10-24T06:59:04.528Z,22.43
2022-10-24T07:01:31.053Z,22.43
2022-10-24T07:03:57.639Z,22.44
2022-10-24T07:06:24.075Z,22.45
2022-10-24T07:08:50.458Z,22.41
2022-10-24T07:11:16.821Z,22.44
2022-10-24T07:13:43.198Z,22.48
2022-10-24T07:16:09.551Z,22.48
2022-10-24T07:18:35.904Z,22.50
2022-10-24T07:21:02.287Z,22.49
2022-10-24T07:23:28.650Z,22.44
2022-10-24T07:25:55.016Z,22.43
2022-10-24T07:28:21.388Z,22.44
2022-10-24T07:30:47.752Z,22.44
2022-10-24T07:33:15.540Z,22.44
2022-10-24T07:35:43.194Z,22.42
2022-10-24T07:38:11.991Z,22.44
2022-10-24T07:40:40.996Z,22.41
2022-10-24T07:43:08.663Z,22.47
2022-10-24T07:45:36.432Z,22.45
2022-10-24T07:48:04.087Z,22.43
2022-10-24T07:50:31.744Z,22.41
2022-10-24T07:52:59.415Z,22.44
2022-10-24T07:55:25.776Z,22.45
2022-10-24T07:57:52.132Z,22.47
2022-10-24T08:00:18.506Z,22.47
2022-10-24T08:02:44.987Z,22.49
2022-10-24T08:05:11.416Z,22.47
2022-10-24T08:07:37.788Z,22.48
2022-10-24T08:10:04.148Z,22.45
2022-10-24T08:12:30.689Z,22.46
2022-10-24T08:14:57.069Z,22.48
2022-10-24T08:17:23.437Z,22.51
2022-10-24T08:19:49.789Z,22.48
2022-10-24T08:22:16.153Z,22.52
2022-10-24T08:24:42.519Z,22.50
2022-10-24T08:27:08.880Z,22.54
2022-10-24T08:29:35.245Z,22.53
2022-10-24T08:32:01.587Z,22.51
2022-10-24T08:34:27.943Z,22.48
2022-10-24T08:36:54.326Z,22.50
2022-10-24T08:39:20.686Z,22.51
2022-10-24T08:41:47.037Z,22.51
2022-10-24T08:44:13.425Z,22.50
2022-10-24T08:46:39.775Z,22.47
2022-10-24T08:49:06.145Z,22.45
2022-10-24T08:51:32.498Z,22.50
2022-10-24T08:53:58.849Z,22.50
2022-10-24T08:56:25.222Z,22.51
2022-10-24T08:58:51.588Z,22.50
2022-10-24T09:01:18.015Z,22.50
2022-10-24T09:03:55.749Z,22.49
2022-10-24T09:06:23.134Z,22.49
2022-10-24T09:08:49.508Z,22.45
2022-10-24T09:11:15.873Z,22.45
2022-10-24T09:13:42.232Z,22.47
2022-10-24T09:16:08.604Z,22.45
2022-10-24T09:18:35.010Z,22.43
2022-10-24T09:21:01.375Z,22.46
2022-10-24T09:23:27.737Z,22.47
2022-10-24T09:25:54.114Z,22.50
2022-10-24T09:28:20.470Z,22.49
2022-10-24T09:30:46.918Z,22.44
2022-10-24T09:33:13.284Z,22.47
2022-10-24T09:35:39.645Z,22.44
2022-10-24T09:38:06.005Z,22.48
2022-10-24T09:40:32.360Z,22.43
2022-10-24T09:42:58.711Z,22.46
2022-10-24T09:45:25.082Z,22.48
2022-10-24T09:47:51.450Z,22.49
2022-10-24T09:50:17.867Z,22.44
2022-10-24T09:52:44.228Z,22.44
2022-10-24T09:55:10.596Z,22.42
2022-10-24T09:57:36.956Z,22.47
2022-10-24T10:00:03.322Z,22.47
2022-10-24T10:02:29.776Z,22.48
2022-10-24T10:04:56.177Z,22.48
2022-10-24T10:07:22.527Z,22.43
2022-10-24T10:09:51.588Z,22.47
2022-10-24T10:12:20.517Z,22.45
2022-10-24T10:14:46.896Z,22.39
2022-10-24T10:17:13.260Z,22.33
2022-10-24T10:19:39.634Z,22.35
2022-10-24T10:22:05.991Z,22.37
2022-10-24T10:24:32.344Z,22.38
2022-10-24T10:26:58.704Z,22.39
2022-10-24T10:29:25.089Z,22.42
2022-10-24T10:31:51.450Z,22.41
2022-10-24T10:34:20.474Z,22.40
2022-10-24T10:36:47.972Z,22.40
2022-10-24T10:39:14.329Z,22.37
2022-10-24T10:41:40.709Z,22.36
2022-10-24T10:44:07.495Z,22.42
2022-10-24T10:46:33.855Z,22.39
2022-10-24T10:49:00.231Z,22.54
2022-10-24T10:51:26.589Z,22.48
2022-10-24T10:53:52.946Z,22.49
2022-10-24T10:56:19.300Z,22.47
2022-10-24T10:58:45.666Z,22.48
2022-10-24T11:01:12.183Z,22.44
2022-10-24T11:03:38.623Z,22.42
2022-10-24T11:06:04.982Z,22.41
2022-10-24T11:08:31.344Z,22.45
2022-10-24T11:10:57.700Z,22.42
2022-10-24T11:13:24.064Z,22.38
2022-10-24T11:15:50.417Z,22.35
2022-10-24T11:18:16.779Z,22.33
2022-10-24T11:20:43.132Z,22.38
2022-10-24T11:23:09.515Z,22.38
2022-10-24T11:25:35.881Z,22.41
2022-10-24T11:28:02.300Z,22.42
2022-10-24T11:30:28.677Z,22.44
2022-10-24T11:32:55.040Z,22.43
2022-10-24T11:35:21.406Z,22.40
2022-10-24T11:37:47.808Z,22.49
2022-10-24T11:40:14.241Z,22.48
2022-10-24T11:42:40.693Z,22.49
2022-10-24T11:45:07.229Z,22.47
2022-10-24T11:47:33.610Z,22.43
2022-10-24T11:49:59.984Z,22.45
2022-10-24T11:52:26.341Z,22.47
2022-10-24T11:54:52.703Z,22.50
2022-10-24T11:57:19.084Z,22.48
2022-10-24T11:59:45.443Z,22.53
2022-10-24T12:02:11.903Z,22.50
2022-10-24T12:04:38.330Z,22.50
2022-10-24T12:07:04.698Z,22.51
2022-10-24T12:09:33.627Z,22.47
2022-10-24T12:12:00.945Z,22.48
2022-10-24T12:14:27.320Z,22.50
2022-10-24T12:16:53.921Z,22.49
2022-10-24T12:19:20.273Z,22.49
2022-10-24T12:21:46.642Z,22.45
2022-10-24T12:24:13.013Z,22.41
2022-10-24T12:26:39.372Z,22.48
2022-10-24T12:29:05.729Z,22.43
2022-10-24T12:31:32.987Z,22.43
2022-10-24T12:33:59.489Z,22.42
2022-10-24T12:36:25.866Z,22.42
2022-10-24T12:38:52.221Z,22.43
2022-10-24T12:41:18.572Z,22.49
2022-10-24T12:43:45.027Z,22.46
2022-10-24T12:46:13.321Z,22.52
2022-10-24T12:48:39.735Z,22.53
2022-10-24T12:51:06.106Z,22.49
2022-10-24T12:53:32.465Z,22.50
2022-10-24T12:55:58.831Z,22.54
2022-10-24T12:58:25.210Z,22.59
2022-10-24T13:00:51.573Z,22.53
2022-10-24T13:03:17.924Z,22.55
2022-10-24T13:05:44.298Z,22.54
2022-10-24T13:08:10.654Z,22.52
2022-10-24T13:10:37.003Z,22.49
2022-10-24T13:13:03.407Z,22.53
2022-10-24T13:15:29.832Z,22.52
2022-10-24T13:17:56.209Z,22.50
2022-10-24T13:20:22.581Z,22.52
2022-10-24T13:22:48.958Z,22.48
2022-10-24T13:25:15.313Z,22.51
2022-10-24T13:27:41.674Z,22.50
2022-10-24T13:30:08.056Z,22.53
2022-10-24T13:32:34.413Z,22.54
2022-10-24T13:35:00.781Z,22.49
2022-10-24T13:37:27.151Z,22.50
2022-10-24T13:39:53.507Z,22.53
2022-10-24T13:42:19.872Z,22.55
2022-10-24T13:44:46.218Z,22.54
2022-10-24T13:47:12.578Z,22.58
2022-10-24T13:49:38.947Z,22.58
2022-10-24T13:52:05.301Z,22.52
2022-10-24T13:54:31.671Z,22.53
2022-10-24T13:57:01.278Z,22.54
2022-10-24T13:59:28.659Z,22.55
2022-10-24T14:01:55.030Z,22.55
2022-10-24T14:04:21.392Z,22.56
2022-10-24T14:06:47.755Z,22.55
2022-10-24T14:09:14.267Z,22.53
2022-10-24T14:11:40.641Z,22.51
2022-10-24T14:14:09.216Z,22.55
2022-10-24T14:16:37.367Z,22.48
2022-10-24T14:19:03.733Z,22.50
2022-10-24T14:21:30.083Z,22.51
2022-10-24T14:23:56.444Z,22.51
2022-10-24T14:26:22.804Z,22.50
2022-10-24T14:28:50.314Z,22.50
2022-10-24T14:31:17.194Z,22.52
2022-10-24T14:33:43.542Z,22.52
2022-10-24T14:36:09.906Z,22.57
2022-10-24T14:38:36.265Z,22.52
2022-10-24T14:41:08.953Z,22.51
2022-10-24T14:43:35.879Z,22.49
2022-10-24T14:46:02.258Z,22.48
2022-10-24T14:48:28.637Z,22.51
2022-10-24T14:50:55.014Z,22.50
2022-10-24T14:53:21.368Z,22.51
2022-10-24T14:55:47.720Z,22.47
2022-10-24T14:58:14.091Z,22.49
2022-10-24T15:00:40.567Z,22.45
2022-10-24T15:03:06.950Z,22.45
2022-10-24T15:05:33.309Z,22.50
2022-10-24T15:08:24.837Z,22.47
2022-10-24T15:10:46.034Z,22.47
2022-10-24T15:13:12.394Z,22.49
2022-10-24T15:15:38.758Z,22.50
2022-10-24T15:18:05.137Z,22.50
2022-10-24T15:20:31.498Z,22.51
2022-10-24T15:22:57.867Z,22.52
2022-10-24T15:25:24.243Z,22.51
2022-10-24T15:27:50.605Z,22.52
2022-10-24T15:30:17.062Z,22.54
2022-10-24T15:32:43.420Z,22.53
2022-10-24T15:35:09.787Z,22.48
2022-10-24T15:37:36.156Z,22.50
2022-10-24T15:40:02.522Z,22.50
2022-10-24T15:42:28.886Z,22.50
2022-10-24T15:44:55.254Z,22.48
2022-10-24T15:47:21.617Z,22.47
2022-10-24T15:49:47.965Z,22.52
2022-10-24T15:52:14.316Z,22.47
2022-10-24T15:54:40.774Z,22.44
2022-10-24T15:57:07.143Z,22.50
2022-10-24T15:59:33.502Z,22.49
2022-10-24T16:01:59.875Z,22.47
2022-10-24T16:04:26.235Z,22.44
2022-10-24T16:06:52.608Z,22.47
2022-10-24T16:09:18.978Z,22.45
2022-10-24T16:11:45.339Z,22.42
2022-10-24T16:14:11.702Z,22.44
2022-10-24T16:16:38.067Z,22.46
2022-10-24T16:19:04.443Z,22.45
2022-10-24T16:21:30.792Z,22.42
2022-10-24T16:23:57.168Z,22.48
2022-10-24T16:26:23.550Z,22.44
2022-10-24T16:28:49.910Z,22.45
2022-10-24T16:31:16.277Z,22.48
2022-10-24T16:33:42.628Z,22.50
2022-10-24T16:36:08.974Z,22.45
2022-10-24T16:38:35.342Z,22.48
2022-10-24T16:41:01.721Z,22.48
2022-10-24T16:43:28.178Z,22.48
2022-10-24T16:45:54.538Z,22.51
2022-10-24T16:48:20.903Z,22.45
2022-10-24T16:50:47.270Z,22.47
2022-10-24T16:53:13.639Z,22.45
2022-10-24T16:55:39.999Z,22.49
2022-10-24T16:58:06.348Z,22.50
2022-10-24T17:00:32.866Z,22.48
2022-10-24T17:02:59.258Z,22.49
2022-10-24T17:05:25.621Z,22.48
2022-10-24T17:07:52.001Z,22.47
2022-10-24T17:10:20.762Z,22.45
2022-10-24T17:12:50.155Z,22.44
2022-10-24T17:15:18.134Z,22.43
2022-10-24T17:17:47.765Z,22.40
2022-10-24T17:20:14.388Z,22.43
2022-10-24T17:22:40.745Z,22.42
2022-10-24T17:25:07.112Z,22.38
2022-10-24T17:27:33.466Z,22.43
2022-10-24T17:29:59.826Z,22.47
2022-10-24T17:32:26.199Z,22.42
2022-10-24T17:34:52.588Z,22.43
2022-10-24T17:37:18.946Z,22.40
2022-10-24T17:39:45.838Z,22.39
2022-10-24T17:42:12.332Z,22.40
2022-10-24T17:44:39.140Z,22.39
2022-10-24T17:47:05.500Z,22.41
2022-10-24T17:49:31.857Z,22.39
2022-10-24T17:51:58.230Z,22.44
2022-10-24T17:54:24.591Z,22.43
2022-10-24T17:56:50.963Z,22.42
2022-10-24T17:59:17.323Z,22.45
2022-10-24T18:01:43.708Z,22.42
2022-10-24T18:04:10.115Z,22.47
2022-10-24T18:06:39.462Z,22.47
2022-10-24T18:09:09.621Z,22.49
2022-10-24T18:11:35.983Z,22.43
2022-10-24T18:14:02.349Z,22.43
2022-10-24T18:16:30.626Z,22.41
2022-10-24T18:18:57.259Z,22.40
2022-10-24T18:21:23.612Z,22.42
2022-10-24T18:23:49.982Z,22.44
2022-10-24T18:26:16.345Z,22.41
2022-10-24T18:28:42.704Z,22.38
2022-10-24T18:31:09.068Z,22.36
2022-10-24T18:33:35.434Z,22.38
2022-10-24T18:36:01.823Z,22.39
2022-10-24T18:38:28.186Z,22.40
2022-10-24T18:40:54.545Z,22.47
2022-10-24T18:43:20.910Z,22.38
2022-10-24T18:45:47.291Z,22.38
2022-10-24T18:48:13.784Z,22.39
2022-10-24T18:50:40.129Z,22.52
2022-10-24T18:53:06.494Z,22.43
2022-10-24T18:55:32.842Z,22.40
2022-10-24T18:57:59.206Z,22.40
2022-10-24T19:00:25.574Z,22.39
2022-10-24T19:02:51.955Z,22.38
2022-10-24T19:05:18.322Z,22.38
2022-10-24T19:07:45.102Z,22.42
2022-10-24T19:10:11.873Z,22.37
2022-10-24T19:12:38.236Z,22.38
2022-10-24T19:15:04.592Z,22.40
2022-10-24T19:17:30.965Z,22.41
2022-10-24T19:19:57.319Z,22.43
2022-10-24T19:22:23.675Z,22.38
2022-10-24T19:24:50.039Z,22.39
2022-10-24T19:27:16.406Z,22.36
2022-10-24T19:29:42.776Z,22.37
2022-10-24T19:32:09.135Z,22.37
2022-10-24T19:34:35.490Z,22.36
2022-10-24T19:37:01.859Z,22.31
2022-10-24T19:39:31.566Z,22.27
2022-10-24T19:42:00.216Z,22.32
2022-10-24T19:44:26.594Z,22.25
2022-10-24T19:46:52.957Z,22.26
2022-10-24T19:49:19.334Z,22.29
2022-10-24T19:51:45.710Z,22.31
2022-10-24T19:54:12.162Z,22.29
2022-10-24T19:56:38.518Z,22.31
2022-10-24T19:59:04.869Z,22.35
2022-10-24T20:01:31.341Z,22.38
2022-10-24T20:03:57.827Z,22.50
2022-10-24T20:06:24.202Z,22.33
2022-10-24T20:08:50.564Z,22.32
2022-10-24T20:11:16.930Z,22.34
2022-10-24T20:13:43.308Z,22.30
2022-10-24T20:16:09.671Z,22.39
2022-10-24T20:18:36.116Z,22.39
2022-10-24T20:21:02.573Z,22.34
2022-10-24T20:23:28.936Z,22.37
2022-10-24T20:25:55.291Z,22.33
2022-10-24T20:28:21.652Z,22.34
2022-10-24T20:30:48.057Z,22.37
2022-10-24T20:33:14.431Z,22.39
2022-10-24T20:35:40.786Z,22.42
2022-10-24T20:38:07.151Z,22.47
2022-10-24T20:40:33.508Z,22.45
2022-10-24T20:42:59.877Z,22.42
2022-10-24T20:45:26.246Z,22.38
2022-10-24T20:47:52.600Z,22.39
2022-10-24T20:50:18.994Z,22.34
2022-10-24T20:52:45.751Z,22.33
2022-10-24T20:55:24.986Z,22.36
2022-10-24T20:57:58.770Z,22.37
2022-10-24T21:00:25.121Z,22.39
2022-10-24T21:02:51.477Z,22.37
2022-10-24T21:05:17.840Z,22.37
2022-10-24T21:07:44.212Z,22.39
2022-10-24T21:10:10.575Z,22.38
2022-10-24T21:12:36.935Z,22.45
2022-10-24T21:15:03.300Z,22.49
2022-10-24T21:17:29.665Z,22.45
2022-10-24T21:19:56.068Z,22.50
2022-10-24T21:22:22.443Z,22.42
2022-10-24T21:24:48.792Z,22.43
2022-10-24T21:27:15.156Z,22.42
2022-10-24T21:29:41.527Z,22.39
2022-10-24T21:32:07.897Z,22.37
2022-10-24T21:34:34.926Z,22.39
2022-10-24T21:37:01.556Z,22.38
2022-10-24T21:39:27.908Z,22.36
2022-10-24T21:41:54.260Z,22.36
2022-10-24T21:44:20.649Z,22.35
2022-10-24T21:46:47.015Z,22.30
2022-10-24T21:49:13.374Z,22.33
2022-10-24T21:51:39.737Z,22.33
2022-10-24T21:54:06.089Z,22.35
2022-10-24T21:56:32.441Z,22.32
2022-10-24T21:58:58.865Z,22.29
2022-10-24T22:01:25.359Z,22.24
2022-10-24T22:03:51.776Z,22.25
2022-10-24T22:06:18.158Z,22.21
2022-10-24T22:08:44.538Z,22.22
2022-10-24T22:11:10.919Z,22.19
2022-10-24T22:13:37.273Z,22.21
2022-10-24T22:16:03.637Z,22.22
2022-10-24T22:18:30.013Z,22.21
2022-10-24T22:20:56.375Z,22.25
2022-10-24T22:23:22.732Z,22.24
2022-10-24T22:25:49.113Z,22.25
2022-10-24T22:28:15.464Z,22.27
2022-10-24T22:30:41.826Z,22.30
2022-10-24T22:33:08.192Z,22.29
2022-10-24T22:35:34.558Z,22.23
2022-10-24T22:38:00.922Z,22.26
2022-10-24T22:40:27.298Z,22.26
2022-10-24T22:42:53.654Z,22.20
2022-10-24T22:45:20.007Z,22.21
2022-10-24T22:47:46.386Z,22.19
2022-10-24T22:50:12.745Z,22.28
2022-10-24T22:52:39.120Z,22.28
2022-10-24T22:55:07.259Z,22.27
2022-10-24T23:00:21.981Z,22.23
2022-10-24T23:02:48.521Z,22.24
2022-10-24T23:05:15.122Z,22.23
2022-10-24T23:07:41.485Z,22.25
2022-10-24T23:10:07.849Z,22.24
2022-10-24T23:12:34.210Z,22.24
2022-10-24T23:15:00.604Z,22.17
2022-10-24T23:17:27.052Z,22.22
2022-10-24T23:19:53.405Z,22.17
2022-10-24T23:22:19.764Z,22.22
2022-10-24T23:24:46.130Z,22.19
2022-10-24T23:27:12.506Z,22.18
2022-10-24T23:29:38.874Z,22.18
2022-10-24T23:32:05.228Z,22.17
2022-10-24T23:34:31.579Z,22.17
2022-10-24T23:36:57.936Z,22.21
2022-10-24T23:39:24.293Z,22.21
2022-10-24T23:41:50.656Z,22.22
2022-10-24T23:44:17.013Z,22.23
2022-10-24T23:46:43.370Z,22.22
2022-10-24T23:49:09.742Z,22.20
2022-10-24T23:51:36.093Z,22.21
2022-10-24T23:54:02.438Z,22.24
2022-10-24T23:56:28.802Z,22.21
2022-10-24T23:58:55.160Z,22.21
